• Join FlightAware (Why Join?)
  • Login
  • US Flag 
03:02PM EDT


 

Airport Tracker/Info


-or-


 

Live Flight TrackerFlight Track Log ✈ UPS797 ✈ 19-Jul-2013 ✈ KABQ - KSDF

Flight Track Log - Related Links

Times and Time Zones

All times are in EDT time to prevent confusion due to time zone crossing. See the UPS797 flight status page for this flight to view local times or setup timezone preferences in your user account.

Time Position Orientation Groundspeed Altitude Reporting Facility
EDT Latitude Longitude Course Direction KTS MPH feet Rate Location/Type
11:03PM 35.0590 -106.6010 35° Northeast 187 215 6,700  Level FlightAware
11:03PM 35.0740 -106.6070 342° North 189 217 7,500 2,580 Climbing FlightAware
11:04PM 35.0950 -106.6170 339° North 195 224 8,400 2,100 Climbing FlightAware
11:04PM 35.1190 -106.6280 339° North 225 259 8,900 1,320 Climbing FlightAware
11:04PM 35.1380 -106.6320 350° North 243 280 9,400 1,740 Climbing FlightAware
11:05PM 35.1870 -106.6340 358° North 283 326 10,600 1,980 Climbing FlightAware
11:06PM 35.2680 -106.6180 North 326 375 12,700 2,280 Climbing FlightAware
11:07PM 35.3140 -106.5790 35° Northeast 342 394 14,200 1,800 Climbing FlightAware
11:07PM 35.3320 -106.5320 65° Northeast 373 429 14,600 600 Climbing FlightAware
11:08PM 35.3350 -106.4480 87° East 410 472 14,900 1,320 Climbing FlightAware
11:08PM 35.3270 -106.3410 95° East 417 480 16,500 1,860 Climbing FlightAware
11:09PM 35.3200 -106.2560 96° East 416 479 17,500 2,040 Climbing FlightAware
11:10PM 35.3160 -106.1660 93° East 423 487 19,100 3,000 Climbing FlightAware
11:10PM 35.3120 -106.0590 93° East 406 467 21,700 2,460 Climbing FlightAware
11:11PM 35.3240 -105.9180 84° East 425 489 23,500 2,040 Climbing FlightAware
11:12PM 35.3450 -105.8250 75° East 421 484 25,200 1,740 Climbing FlightAware
11:13PM 35.3750 -105.6930 74° East 420 483 26,500 660 Climbing FlightAware
11:14PM 35.3980 -105.5950 74° East 420 483 26,500  Level FlightAware
11:15PM 35.4160 -105.5190 74° East 420 483 26,500  Level FlightAware
11:15PM 35.4320 -105.4510 74° East 420 483 26,500  Level FlightAware
11:16PM 35.4530 -105.3580 74° East 420 483 26,500  Level FlightAware
11:17PM 35.4700 -105.2870 74° East 420 483 26,500 4,980 Level FlightAware
11:17PM 35.5022 -105.1175 74° East 460 529 32,100 4,140 Climbing Albuquerque Center
11:18PM 35.5364 -104.9639 75° East 462 532 33,000 420 Climbing Albuquerque Center
11:19PM 35.5706 -104.8067 75° East 467 537 33,000  Level Albuquerque Center
11:20PM 35.6044 -104.6494 75° East 470 541 33,000  Level Albuquerque Center
11:21PM 35.6431 -104.4692 75° East 463 533 33,000  Level Albuquerque Center
11:22PM 35.6767 -104.3139 75° East 463 533 33,000  Level Albuquerque Center
11:23PM 35.7094 -104.1606 75° East 459 528 33,000  Level Albuquerque Center
11:24PM 35.7419 -104.0050 76° East 461 531 33,000  Level Albuquerque Center
11:25PM 35.7736 -103.8481 76° East 465 535 33,000  Level Albuquerque Center
11:26PM 35.8050 -103.6931 76° East 463 533 33,000  Level Albuquerque Center
11:27PM 35.8381 -103.5369 75° East 465 535 33,000  Level Albuquerque Center
11:28PM 35.8686 -103.3844 76° East 458 527 33,000  Level Albuquerque Center
11:29PM 35.8992 -103.2328 76° East 453 521 33,000  Level Albuquerque Center
11:30PM 35.9306 -103.0783 76° East 457 526 33,000  Level Albuquerque Center
11:31PM 35.9614 -102.9236 76° East 460 529 33,000  Level Albuquerque Center
11:32PM 35.9922 -102.7689 76° East 455 524 33,000  Level Albuquerque Center
11:33PM 36.0217 -102.6161 77° East 456 525 33,000  Level Albuquerque Center
11:35PM 36.0511 -102.4622 77° East 459 528 33,000  Level Albuquerque Center
11:36PM 36.0822 -102.3083 76° East 460 529 33,000  Level Albuquerque Center
11:37PM 36.1103 -102.1575 77° East 454 522 33,000  Level Albuquerque Center
11:38PM 36.1450 -101.9731 77° East 457 526 33,000  Level Albuquerque Center
11:39PM 36.1739 -101.8203 77° East 456 525 33,000  Level Albuquerque Center
11:40PM 36.2031 -101.6686 77° East 454 522 33,000  Level Albuquerque Center
11:41PM 36.2308 -101.5172 77° East 452 520 33,000  Level Albuquerque Center
11:42PM 36.2586 -101.3639 77° East 454 522 33,000  Level Albuquerque Center
11:43PM 36.2828 -101.2222 78° East 456 525 33,000  Level Albuquerque Center
11:44PM 36.3167 -101.0364 77° East 455 524 33,000  Level Albuquerque Center
11:45PM 36.3444 -100.8850 77° East 455 524 33,000  Level Albuquerque Center
11:45PM 36.3581 -100.8133 77° East 453 521 33,000  Level Kansas City Center
11:46PM 36.3883 -100.6417 78° East 453 521 33,000  Level Kansas City Center
11:47PM 36.4142 -100.4889 78° East 452 520 33,000  Level Kansas City Center
11:48PM 36.4425 -100.3347 77° East 454 522 33,000  Level Kansas City Center
11:49PM 36.4692 -100.1803 78° East 455 524 33,000  Level Kansas City Center
11:50PM 36.4953 -100.0258 78° East 456 525 33,000  Level Kansas City Center
11:51PM 36.5208 -99.8725 78° East 453 521 33,000  Level Kansas City Center
11:52PM 36.5469 -99.7192 78° East 452 520 33,000  Level Kansas City Center
11:54PM 36.5731 -99.5647 78° East 452 520 33,000  Level Kansas City Center
11:55PM 36.5983 -99.4100 78° East 453 521 33,000  Level Kansas City Center
12:00AM 36.7390 -98.5440 78° East 455 524 33,000  Level FlightAware
12:01AM 36.7550 -98.4390 79° East 456 525 33,000  Level FlightAware
12:01AM 36.7710 -98.3380 79° East 458 527 33,000  Level FlightAware
12:02AM 36.7900 -98.2180 79° East 463 533 33,000  Level FlightAware
12:03AM 36.8070 -98.1070 79° East 466 536 33,000  Level FlightAware
12:04AM 36.8240 -97.9910 80° East 468 539 33,000  Level FlightAware
12:04AM 36.8420 -97.8770 79° East 466 536 33,000  Level FlightAware
12:05AM 36.8580 -97.7710 79° East 468 539 33,000  Level FlightAware
12:06AM 36.8760 -97.6510 79° East 470 541 33,000  Level FlightAware
12:06AM 36.8890 -97.5660 79° East 472 543 33,000  Level FlightAware
12:07AM 36.9060 -97.4500 80° East 474 545 33,000  Level FlightAware
12:08AM 36.9220 -97.3400 80° East 474 545 33,000  Level FlightAware
12:08AM 36.9360 -97.2450 80° East 473 544 33,000  Level FlightAware
12:09AM 36.9510 -97.1410 80° East 469 540 33,000  Level FlightAware
12:10AM 36.9720 -96.9970 80° East 473 544 33,000  Level FlightAware
12:10AM 36.9880 -96.8890 79° East 476 548 33,000  Level FlightAware
12:11AM 37.0020 -96.7880 80° East 477 549 33,000  Level FlightAware
12:12AM 37.0180 -96.6770 80° East 475 547 33,000  Level FlightAware
12:12AM 37.0320 -96.5750 80° East 475 547 33,000  Level FlightAware
12:13AM 37.0470 -96.4720 80° East 475 547 33,000  Level FlightAware
12:14AM 37.0620 -96.3580 81° East 474 545 33,000  Level FlightAware
12:14AM 37.0780 -96.2500 79° East 473 544 33,000  Level FlightAware
12:15AM 37.0930 -96.1340 81° East 475 547 33,000  Level FlightAware
12:16AM 37.1090 -96.0170 80° East 476 548 33,000  Level FlightAware
12:16AM 37.1230 -95.9160 80° East 474 545 33,000  Level FlightAware
12:17AM 37.1380 -95.8030 81° East 475 547 33,000  Level FlightAware
12:18AM 37.1550 -95.6770 80° East 480 552 33,000  Level FlightAware
12:19AM 37.1710 -95.5530 81° East 482 555 33,000  Level FlightAware
12:19AM 37.1860 -95.4380 81° East 483 556 33,000  Level FlightAware
12:20AM 37.2010 -95.3220 81° East 482 555 33,000  Level FlightAware
12:21AM 37.2160 -95.2120 80° East 481 554 33,000  Level FlightAware
12:21AM 37.2310 -95.0910 81° East 479 551 33,000  Level FlightAware
12:22AM 37.2400 -95.0250 80° East 479 551 33,000  Level FlightAware
12:23AM 37.2590 -94.8710 81° East 480 552 33,000  Level FlightAware
12:23AM 37.2740 -94.7560 81° East 481 554 33,000  Level FlightAware
12:24AM 37.2880 -94.6370 82° East 482 555 33,000  Level FlightAware
12:25AM 37.3020 -94.5240 81° East 481 554 33,000  Level FlightAware
12:26AM 37.3160 -94.4080 81° East 481 554 33,000  Level FlightAware
12:26AM 37.3310 -94.2890 81° East 481 554 33,000  Level FlightAware
12:27AM 37.3440 -94.1790 82° East 481 554 33,000  Level FlightAware
12:28AM 37.3590 -94.0520 82° East 481 554 33,000  Level FlightAware
12:28AM 37.3730 -93.9360 81° East 482 555 33,000  Level FlightAware
12:29AM 37.3860 -93.8200 82° East 481 554 33,000  Level FlightAware
12:30AM 37.4010 -93.6970 81° East 483 556 33,000  Level FlightAware
12:30AM 37.4120 -93.5970 82° East 484 557 33,000  Level FlightAware
12:31AM 37.4240 -93.4880 82° East 485 558 33,000  Level FlightAware
12:32AM 37.4350 -93.3960 81° East 485 558 33,000  Level FlightAware
12:32AM 37.4470 -93.2870 82° East 487 560 33,000  Level FlightAware
12:33AM 37.4630 -93.1410 82° East 485 558 33,000  Level FlightAware
12:34AM 37.4750 -93.0320 82° East 482 555 33,000  Level FlightAware
12:34AM 37.4870 -92.9270 82° East 481 554 33,000  Level FlightAware
12:35AM 37.4980 -92.8220 82° East 482 555 33,000  Level FlightAware
12:36AM 37.5090 -92.7240 82° East 483 556 33,000  Level FlightAware
12:36AM 37.5240 -92.5790 83° East 484 557 33,000  Level FlightAware
12:37AM 37.5370 -92.4560 82° East 483 556 33,000  Level FlightAware
12:38AM 37.5490 -92.3360 83° East 483 556 33,000  Level FlightAware
12:39AM 37.5600 -92.2330 82° East 483 556 33,000  Level FlightAware
12:40AM 37.5770 -92.0730 82° East 482 555 33,000  Level FlightAware
12:40AM 37.5900 -91.9320 83° East 481 554 33,000  Level FlightAware
12:41AM 37.6040 -91.7930 83° East 479 551 33,000  Level FlightAware
12:42AM 37.6160 -91.6740 83° East 479 551 33,000  Level FlightAware
12:43AM 37.6260 -91.5720 83° East 480 552 33,000  Level FlightAware
12:43AM 37.6360 -91.4630 83° East 480 552 33,000  Level FlightAware
12:44AM 37.6450 -91.3780 82° East 480 552 33,000  Level FlightAware
12:45AM 37.6560 -91.2620 83° East 480 552 33,000  Level FlightAware
12:45AM 37.6640 -91.1770 83° East 480 552 33,000  Level FlightAware
12:46AM 37.6720 -91.0910 83° East 480 552 33,000  Level FlightAware
12:47AM 37.6840 -90.9750 83° East 480 552 33,000  Level FlightAware
12:47AM 37.6920 -90.8900 83° East 480 552 33,000  Level FlightAware
12:48AM 37.7000 -90.8050 83° East 480 552 33,000  Level FlightAware
12:49AM 37.7090 -90.7150 83° East 480 552 33,000  Level FlightAware
12:49AM 37.7200 -90.6010 83° East 480 552 33,000  Level FlightAware
12:50AM 37.7280 -90.5160 83° East 480 552 33,000  Level FlightAware
12:51AM 37.7360 -90.4360 83° East 480 552 33,000  Level FlightAware
12:51AM 37.7470 -90.3190 83° East 480 552 33,000  Level FlightAware
12:52AM 37.7560 -90.2320 83° East 480 552 33,000  Level FlightAware
12:54AM 37.8470 -89.6160 79° East 479 551 33,000  Level FlightAware
12:55AM 37.8620 -89.5110 80° East 479 551 33,000  Level FlightAware
12:56AM 37.8740 -89.4200 80° East 478 550 33,000  Level FlightAware
12:56AM 37.8910 -89.2960 80° East 478 550 33,000  Level FlightAware
12:57AM 37.9070 -89.1740 81° East 480 552 33,000  Level FlightAware
12:58AM 37.9230 -89.0520 81° East 480 552 33,000  Level FlightAware
12:58AM 37.9380 -88.9380 80° East 481 554 33,000  Level FlightAware
12:59AM 37.9540 -88.8210 80° East 481 554 33,000  Level FlightAware
01:00AM 37.9700 -88.6930 81° East 482 555 33,000  Level FlightAware
01:01AM 37.9850 -88.5760 81° East 482 555 33,000  Level FlightAware
01:01AM 37.9990 -88.4650 81° East 482 555 33,000  Level FlightAware
01:02AM 38.0150 -88.3420 81° East 483 556 33,000  Level FlightAware
01:03AM 38.0290 -88.2280 81° East 483 556 33,000  Level FlightAware
01:03AM 38.0430 -88.1180 81° East 484 557 33,000 -360 Level FlightAware
01:04AM 38.0550 -88.0230 81° East 485 558 32,600 -960 Descending FlightAware
01:05AM 38.0690 -87.9050 81° East 486 559 31,900 -1,140 Descending FlightAware
01:05AM 38.0840 -87.7800 81° East 487 560 31,100 -1,080 Descending FlightAware
01:06AM 38.0990 -87.6560 81° East 489 563 30,400 -1,620 Descending FlightAware
01:07AM 38.1130 -87.5430 81° East 483 556 28,900 -2,940 Descending FlightAware
01:07AM 38.1270 -87.4190 82° East 481 554 26,300 -3,240 Descending FlightAware
01:08AM 38.1400 -87.3070 82° East 483 556 24,400 -2,880 Descending FlightAware
01:09AM 38.1540 -87.1850 82° East 467 537 22,300 -2,820 Descending FlightAware
01:10AM 38.1670 -87.0730 82° East 451 519 20,400 -2,940 Descending FlightAware
01:10AM 38.1800 -86.9640 81° East 441 507 18,200 -2,940 Descending FlightAware
01:11AM 38.1910 -86.8610 82° East 428 493 16,300 -2,760 Descending FlightAware
01:12AM 38.2020 -86.7600 82° East 414 476 14,500 -1,920 Descending FlightAware
01:12AM 38.2140 -86.6600 81° East 410 472 13,600 -2,040 Descending FlightAware
01:13AM 38.2230 -86.5740 82° East 375 432 11,600 -1,920 Descending FlightAware
01:14AM 38.2280 -86.5150 84° East 349 402 11,200 -600 Descending FlightAware
01:15AM 38.2150 -86.3990 98° East 317 365 10,700 -300 Descending FlightAware
01:15AM 38.2060 -86.3230 99° East 317 365 10,700 -2,220 Level FlightAware
01:16AM 38.1980 -86.2730 101° East 301 346 8,400 -4,980 Descending FlightAware
01:16AM 38.1930 -86.2400 101° East 298 343 7,900 -1,500 Descending FlightAware
01:17AM 38.1850 -86.1760 99° East 295 339 7,000 -1,500 Descending FlightAware
01:17AM 38.1790 -86.1350 101° East 293 337 6,400 -1,440 Descending FlightAware
01:17AM 38.1690 -86.0910 106° East 288 331 5,800 -1,320 Descending FlightAware
01:18AM 38.1510 -86.0570 124° Southeast 287 330 5,200 -1,380 Descending FlightAware
01:19AM 38.1210 -85.9990 123° Southeast 282 325 4,200 -1,020 Descending FlightAware
01:19AM 38.0960 -85.9470 121° Southeast 281 323 4,000 -240 Descending FlightAware
01:20AM 38.0760 -85.9080 123° Southeast 278 320 4,000  Level FlightAware
01:20AM 38.0610 -85.8770 122° Southeast 250 288 4,000 -120 Level FlightAware
01:21AM 38.0460 -85.8360 115° Southeast 224 258 3,900 -420 Descending FlightAware
01:21AM 38.0360 -85.8060 113° Southeast 210 242 3,600 -720 Descending FlightAware
01:21AM 38.0300 -85.7900 115° Southeast 207 238 3,400 -1,020 Descending FlightAware
01:22AM 38.0230 -85.7670 111° Southeast 213 245 3,000 -960 Descending FlightAware
01:22AM 38.0290 -85.7420 73° East 206 237 2,700 -660 Descending FlightAware
01:22AM 38.0420 -85.7140 59° Northeast 189 217 2,500 -480 Descending FlightAware
01:23AM 38.0560 -85.7060 24° Northeast 178 205 2,400 -480 Descending FlightAware
01:23AM 38.0620 -85.7080 345° North 171 197 2,300 -900 Descending FlightAware
01:23AM 38.0820 -85.7140 347° North 173 199 1,900 -900 Descending FlightAware
01:24AM 38.1020 -85.7200 347° North 143 165 1,500 -840 Descending FlightAware
01:24AM 38.1090 -85.7230 341° North 140 161 1,400 -720 Descending FlightAware
01:24AM 38.1250 -85.7280 346° North 135 155 1,100 -660 Descending FlightAware
01:25AM 38.1430 -85.7340 345° North 136 157 800 -720 Descending FlightAware
01:25AM 38.1570 -85.7390 344° North 137 158 500 -840 Descending FlightAware
01:26AM 38.1710 -85.7440 344° North 68 78 -1,200 Descending FlightAware
01:26AM 38.1780 -85.7460 347° North 31 36  Level FlightAware
01:27AM 38.1810 -85.7460 360° North 31 36  Level FlightAware
01:27AM 38.1780 -85.7440 152° Southeast 27 31  Level FlightAware
01:27AM 38.1780 -85.7430 90° East 33 38  Level FlightAware
01:27AM 38.1770 -85.7430 180° South 31 36  Level FlightAware
01:28AM 38.1750 -85.7420 159° South 30 35  Level FlightAware
01:28AM 38.1740 -85.7420 180° South 24 28  Level FlightAware
01:28AM 38.1740 -85.7410 90° East 25 29  Level FlightAware
01:31AM 38.1667 -85.7333 347° North  Level FlightAware Approximate
01:32AM 38.1741 -85.7365 347° North  Level Estimated